sensor_id;sensor_type;location;lat;lon;timestamp;P1;durP1;ratioP1;P2;durP2;ratioP2
20138;SDS011;10230;51.502;10.800;2022-08-25T00:01:21;3.17;;;2.75;;
20138;SDS011;10230;51.502;10.800;2022-08-25T00:03:48;5.43;;;3.42;;
20138;SDS011;10230;51.502;10.800;2022-08-25T00:06:14;3.22;;;2.75;;
20138;SDS011;10230;51.502;10.800;2022-08-25T00:08:40;3.90;;;2.85;;
20138;SDS011;10230;51.502;10.800;2022-08-25T00:11:08;3.88;;;3.00;;
20138;SDS011;10230;51.502;10.800;2022-08-25T00:13:36;5.07;;;3.13;;
20138;SDS011;10230;51.502;10.800;2022-08-25T00:16:02;4.30;;;3.30;;
20138;SDS011;10230;51.502;10.800;2022-08-25T00:18:28;3.42;;;3.13;;
20138;SDS011;10230;51.502;10.800;2022-08-25T00:20:55;3.65;;;3.28;;
20138;SDS011;10230;51.502;10.800;2022-08-25T00:23:21;5.35;;;3.38;;
20138;SDS011;10230;51.502;10.800;2022-08-25T00:25:48;3.65;;;3.05;;
20138;SDS011;10230;51.502;10.800;2022-08-25T00:28:14;3.88;;;3.33;;
20138;SDS011;10230;51.502;10.800;2022-08-25T00:30:41;6.13;;;4.45;;
20138;SDS011;10230;51.502;10.800;2022-08-25T00:33:07;4.35;;;3.88;;
20138;SDS011;10230;51.502;10.800;2022-08-25T00:35:33;3.90;;;3.55;;
20138;SDS011;10230;51.502;10.800;2022-08-25T00:37:59;5.15;;;4.10;;
20138;SDS011;10230;51.502;10.800;2022-08-25T00:40:26;5.10;;;4.15;;
20138;SDS011;10230;51.502;10.800;2022-08-25T00:42:52;7.20;;;4.60;;
20138;SDS011;10230;51.502;10.800;2022-08-25T00:45:20;4.80;;;4.15;;
20138;SDS011;10230;51.502;10.800;2022-08-25T00:47:46;7.22;;;4.28;;
20138;SDS011;10230;51.502;10.800;2022-08-25T00:50:12;5.28;;;4.40;;
20138;SDS011;10230;51.502;10.800;2022-08-25T00:52:48;5.30;;;3.85;;
20138;SDS011;10230;51.502;10.800;2022-08-25T00:55:35;4.13;;;3.45;;
20138;SDS011;10230;51.502;10.800;2022-08-25T01:00:53;3.97;;;3.60;;
20138;SDS011;10230;51.502;10.800;2022-08-25T01:03:19;4.53;;;3.83;;
20138;SDS011;10230;51.502;10.800;2022-08-25T01:05:46;5.97;;;3.65;;
20138;SDS011;10230;51.502;10.800;2022-08-25T01:08:12;5.57;;;3.50;;
20138;SDS011;10230;51.502;10.800;2022-08-25T01:10:40;4.20;;;3.50;;
20138;SDS011;10230;51.502;10.800;2022-08-25T01:15:39;5.20;;;3.40;;
20138;SDS011;10230;51.502;10.800;2022-08-25T01:18:06;7.15;;;3.70;;
20138;SDS011;10230;51.502;10.800;2022-08-25T01:20:33;5.95;;;3.63;;
20138;SDS011;10230;51.502;10.800;2022-08-25T01:22:59;3.92;;;3.30;;
20138;SDS011;10230;51.502;10.800;2022-08-25T01:27:53;6.45;;;3.60;;
20138;SDS011;10230;51.502;10.800;2022-08-25T01:30:19;3.92;;;3.63;;
20138;SDS011;10230;51.502;10.800;2022-08-25T01:32:46;4.65;;;3.53;;
20138;SDS011;10230;51.502;10.800;2022-08-25T01:35:12;6.32;;;3.60;;
20138;SDS011;10230;51.502;10.800;2022-08-25T01:37:38;5.65;;;3.78;;
20138;SDS011;10230;51.502;10.800;2022-08-25T01:40:04;7.72;;;4.40;;
20138;SDS011;10230;51.502;10.800;2022-08-25T01:45:09;7.32;;;4.55;;
20138;SDS011;10230;51.502;10.800;2022-08-25T01:47:35;5.95;;;4.40;;
20138;SDS011;10230;51.502;10.800;2022-08-25T01:50:03;5.55;;;3.78;;
20138;SDS011;10230;51.502;10.800;2022-08-25T01:52:33;4.32;;;3.97;;
20138;SDS011;10230;51.502;10.800;2022-08-25T01:55:02;4.07;;;3.33;;
20138;SDS011;10230;51.502;10.800;2022-08-25T01:57:28;5.32;;;3.92;;
20138;SDS011;10230;51.502;10.800;2022-08-25T01:59:56;5.70;;;4.45;;
20138;SDS011;10230;51.502;10.800;2022-08-25T02:02:22;4.72;;;4.00;;
20138;SDS011;10230;51.502;10.800;2022-08-25T02:04:48;5.15;;;3.72;;
20138;SDS011;10230;51.502;10.800;2022-08-25T02:07:14;5.22;;;3.80;;
20138;SDS011;10230;51.502;10.800;2022-08-25T02:09:40;5.63;;;4.25;;
20138;SDS011;10230;51.502;10.800;2022-08-25T02:12:08;4.60;;;3.67;;
20138;SDS011;10230;51.502;10.800;2022-08-25T02:14:34;4.20;;;3.80;;
20138;SDS011;10230;51.502;10.800;2022-08-25T02:17:00;6.45;;;4.28;;
20138;SDS011;10230;51.502;10.800;2022-08-25T02:19:27;4.97;;;4.10;;
20138;SDS011;10230;51.502;10.800;2022-08-25T02:21:55;4.75;;;4.35;;
20138;SDS011;10230;51.502;10.800;2022-08-25T02:24:22;5.47;;;3.60;;
20138;SDS011;10230;51.502;10.800;2022-08-25T02:26:48;6.28;;;3.97;;
20138;SDS011;10230;51.502;10.800;2022-08-25T02:29:14;3.78;;;3.25;;
20138;SDS011;10230;51.502;10.800;2022-08-25T02:31:41;4.30;;;3.67;;
20138;SDS011;10230;51.502;10.800;2022-08-25T02:34:07;4.38;;;3.70;;
20138;SDS011;10230;51.502;10.800;2022-08-25T02:36:33;4.07;;;3.42;;
20138;SDS011;10230;51.502;10.800;2022-08-25T02:39:00;4.00;;;3.60;;
20138;SDS011;10230;51.502;10.800;2022-08-25T02:41:26;5.05;;;3.38;;
20138;SDS011;10230;51.502;10.800;2022-08-25T02:43:52;7.43;;;5.07;;
20138;SDS011;10230;51.502;10.800;2022-08-25T02:46:19;5.07;;;4.57;;
20138;SDS011;10230;51.502;10.800;2022-08-25T02:48:46;7.18;;;4.50;;
20138;SDS011;10230;51.502;10.800;2022-08-25T02:51:12;4.53;;;4.10;;
20138;SDS011;10230;51.502;10.800;2022-08-25T02:53:39;5.32;;;4.05;;
20138;SDS011;10230;51.502;10.800;2022-08-25T02:56:06;4.10;;;3.80;;
20138;SDS011;10230;51.502;10.800;2022-08-25T02:58:33;4.22;;;3.78;;
20138;SDS011;10230;51.502;10.800;2022-08-25T03:00:59;5.50;;;4.40;;
20138;SDS011;10230;51.502;10.800;2022-08-25T03:03:25;5.82;;;4.55;;
20138;SDS011;10230;51.502;10.800;2022-08-25T03:05:51;5.68;;;4.50;;
20138;SDS011;10230;51.502;10.800;2022-08-25T03:08:19;6.22;;;4.38;;
20138;SDS011;10230;51.502;10.800;2022-08-25T03:10:45;9.45;;;6.22;;
20138;SDS011;10230;51.502;10.800;2022-08-25T03:13:11;7.70;;;5.45;;
20138;SDS011;10230;51.502;10.800;2022-08-25T03:15:37;6.70;;;5.47;;
20138;SDS011;10230;51.502;10.800;2022-08-25T03:18:06;7.20;;;5.47;;
20138;SDS011;10230;51.502;10.800;2022-08-25T03:20:32;5.28;;;4.78;;
20138;SDS011;10230;51.502;10.800;2022-08-25T03:22:59;5.85;;;4.97;;
20138;SDS011;10230;51.502;10.800;2022-08-25T03:25:26;5.43;;;4.65;;
20138;SDS011;10230;51.502;10.800;2022-08-25T03:28:11;7.90;;;7.00;;
20138;SDS011;10230;51.502;10.800;2022-08-25T03:30:37;7.85;;;5.72;;
20138;SDS011;10230;51.502;10.800;2022-08-25T03:33:03;5.68;;;5.07;;
20138;SDS011;10230;51.502;10.800;2022-08-25T03:35:29;7.30;;;4.50;;
20138;SDS011;10230;51.502;10.800;2022-08-25T03:37:56;6.63;;;5.30;;
20138;SDS011;10230;51.502;10.800;2022-08-25T03:40:22;8.63;;;5.15;;
20138;SDS011;10230;51.502;10.800;2022-08-25T03:42:48;6.00;;;4.63;;
20138;SDS011;10230;51.502;10.800;2022-08-25T03:45:15;5.07;;;4.57;;
20138;SDS011;10230;51.502;10.800;2022-08-25T03:47:41;5.60;;;4.15;;
20138;SDS011;10230;51.502;10.800;2022-08-25T03:50:10;6.72;;;4.85;;
20138;SDS011;10230;51.502;10.800;2022-08-25T03:52:37;6.53;;;5.93;;
20138;SDS011;10230;51.502;10.800;2022-08-25T03:55:03;7.95;;;5.40;;
20138;SDS011;10230;51.502;10.800;2022-08-25T03:57:30;7.22;;;5.72;;
20138;SDS011;10230;51.502;10.800;2022-08-25T03:59:56;5.25;;;4.72;;
20138;SDS011;10230;51.502;10.800;2022-08-25T04:02:22;5.40;;;4.90;;
20138;SDS011;10230;51.502;10.800;2022-08-25T04:04:48;6.97;;;5.25;;
20138;SDS011;10230;51.502;10.800;2022-08-25T04:07:14;6.78;;;4.85;;
20138;SDS011;10230;51.502;10.800;2022-08-25T04:09:41;5.65;;;4.65;;
20138;SDS011;10230;51.502;10.800;2022-08-25T04:12:07;5.50;;;5.00;;
20138;SDS011;10230;51.502;10.800;2022-08-25T04:14:33;5.97;;;4.82;;
20138;SDS011;10230;51.502;10.800;2022-08-25T04:16:59;5.60;;;4.32;;
20138;SDS011;10230;51.502;10.800;2022-08-25T04:19:25;5.45;;;4.40;;
20138;SDS011;10230;51.502;10.800;2022-08-25T04:21:52;5.65;;;4.70;;
20138;SDS011;10230;51.502;10.800;2022-08-25T04:24:18;6.43;;;5.28;;
20138;SDS011;10230;51.502;10.800;2022-08-25T04:26:46;5.55;;;5.05;;
20138;SDS011;10230;51.502;10.800;2022-08-25T04:29:14;6.97;;;5.10;;
20138;SDS011;10230;51.502;10.800;2022-08-25T04:31:41;5.57;;;5.07;;
20138;SDS011;10230;51.502;10.800;2022-08-25T04:34:08;8.27;;;5.72;;
20138;SDS011;10230;51.502;10.800;2022-08-25T04:36:35;9.35;;;6.25;;
20138;SDS011;10230;51.502;10.800;2022-08-25T04:39:01;15.63;;;6.53;;
20138;SDS011;10230;51.502;10.800;2022-08-25T04:41:28;7.10;;;5.38;;
20138;SDS011;10230;51.502;10.800;2022-08-25T04:43:56;9.07;;;5.25;;
20138;SDS011;10230;51.502;10.800;2022-08-25T04:46:23;9.75;;;5.90;;
20138;SDS011;10230;51.502;10.800;2022-08-25T04:48:51;8.85;;;5.68;;
20138;SDS011;10230;51.502;10.800;2022-08-25T04:51:19;8.95;;;5.13;;
20138;SDS011;10230;51.502;10.800;2022-08-25T04:53:47;7.05;;;6.03;;
20138;SDS011;10230;51.502;10.800;2022-08-25T04:56:14;7.35;;;6.45;;
20138;SDS011;10230;51.502;10.800;2022-08-25T04:58:41;10.18;;;5.78;;
20138;SDS011;10230;51.502;10.800;2022-08-25T05:01:09;7.95;;;5.78;;
20138;SDS011;10230;51.502;10.800;2022-08-25T05:03:35;7.80;;;7.10;;
20138;SDS011;10230;51.502;10.800;2022-08-25T05:06:02;10.32;;;8.60;;
20138;SDS011;10230;51.502;10.800;2022-08-25T05:08:28;11.23;;;8.95;;
20138;SDS011;10230;51.502;10.800;2022-08-25T05:10:54;9.38;;;6.72;;
20138;SDS011;10230;51.502;10.800;2022-08-25T05:13:21;6.93;;;6.32;;
20138;SDS011;10230;51.502;10.800;2022-08-25T05:15:53;9.13;;;6.40;;
20138;SDS011;10230;51.502;10.800;2022-08-25T05:18:21;7.55;;;6.40;;
20138;SDS011;10230;51.502;10.800;2022-08-25T05:20:47;11.32;;;5.85;;
20138;SDS011;10230;51.502;10.800;2022-08-25T05:23:14;10.23;;;6.55;;
20138;SDS011;10230;51.502;10.800;2022-08-25T05:25:40;7.78;;;6.22;;
20138;SDS011;10230;51.502;10.800;2022-08-25T05:28:07;7.80;;;6.07;;
20138;SDS011;10230;51.502;10.800;2022-08-25T05:30:33;6.75;;;5.90;;
20138;SDS011;10230;51.502;10.800;2022-08-25T05:32:59;11.38;;;6.90;;
20138;SDS011;10230;51.502;10.800;2022-08-25T05:35:26;8.75;;;6.68;;
20138;SDS011;10230;51.502;10.800;2022-08-25T05:37:52;9.50;;;7.10;;
20138;SDS011;10230;51.502;10.800;2022-08-25T05:40:21;8.20;;;6.30;;
20138;SDS011;10230;51.502;10.800;2022-08-25T05:42:47;8.68;;;6.00;;
20138;SDS011;10230;51.502;10.800;2022-08-25T05:45:13;8.85;;;6.03;;
20138;SDS011;10230;51.502;10.800;2022-08-25T05:47:39;9.93;;;6.10;;
20138;SDS011;10230;51.502;10.800;2022-08-25T05:50:05;7.70;;;6.20;;
20138;SDS011;10230;51.502;10.800;2022-08-25T05:52:33;8.07;;;5.82;;
20138;SDS011;10230;51.502;10.800;2022-08-25T05:54:59;6.18;;;5.45;;
20138;SDS011;10230;51.502;10.800;2022-08-25T05:57:25;6.35;;;5.43;;
20138;SDS011;10230;51.502;10.800;2022-08-25T05:59:51;8.38;;;6.43;;
20138;SDS011;10230;51.502;10.800;2022-08-25T06:02:17;9.13;;;7.40;;
20138;SDS011;10230;51.502;10.800;2022-08-25T06:05:02;11.52;;;8.40;;
20138;SDS011;10230;51.502;10.800;2022-08-25T06:07:28;10.98;;;8.73;;
20138;SDS011;10230;51.502;10.800;2022-08-25T06:09:54;13.82;;;11.32;;
20138;SDS011;10230;51.502;10.800;2022-08-25T06:12:20;11.43;;;8.63;;
20138;SDS011;10230;51.502;10.800;2022-08-25T06:14:46;12.25;;;10.05;;
20138;SDS011;10230;51.502;10.800;2022-08-25T06:17:15;13.65;;;9.68;;
20138;SDS011;10230;51.502;10.800;2022-08-25T06:19:41;12.95;;;8.63;;
20138;SDS011;10230;51.502;10.800;2022-08-25T06:22:08;13.20;;;9.10;;
20138;SDS011;10230;51.502;10.800;2022-08-25T06:24:34;15.43;;;9.88;;
20138;SDS011;10230;51.502;10.800;2022-08-25T06:26:59;14.68;;;11.38;;
20138;SDS011;10230;51.502;10.800;2022-08-25T06:29:26;17.75;;;11.20;;
20138;SDS011;10230;51.502;10.800;2022-08-25T06:31:51;18.63;;;12.07;;
20138;SDS011;10230;51.502;10.800;2022-08-25T06:34:17;17.15;;;13.00;;
20138;SDS011;10230;51.502;10.800;2022-08-25T06:36:43;15.55;;;11.40;;
20138;SDS011;10230;51.502;10.800;2022-08-25T06:39:09;15.43;;;11.23;;
20138;SDS011;10230;51.502;10.800;2022-08-25T06:41:36;14.05;;;11.90;;
20138;SDS011;10230;51.502;10.800;2022-08-25T06:44:02;19.67;;;14.27;;
20138;SDS011;10230;51.502;10.800;2022-08-25T06:46:30;16.90;;;12.43;;
20138;SDS011;10230;51.502;10.800;2022-08-25T06:48:56;21.08;;;13.68;;
20138;SDS011;10230;51.502;10.800;2022-08-25T06:51:23;18.80;;;12.90;;
20138;SDS011;10230;51.502;10.800;2022-08-25T06:53:50;21.15;;;15.90;;
20138;SDS011;10230;51.502;10.800;2022-08-25T06:56:16;20.88;;;13.02;;
20138;SDS011;10230;51.502;10.800;2022-08-25T06:58:43;16.88;;;11.88;;
20138;SDS011;10230;51.502;10.800;2022-08-25T07:01:13;15.30;;;11.38;;
20138;SDS011;10230;51.502;10.800;2022-08-25T07:03:39;13.45;;;10.85;;
20138;SDS011;10230;51.502;10.800;2022-08-25T07:06:06;16.33;;;11.25;;
20138;SDS011;10230;51.502;10.800;2022-08-25T07:08:32;16.38;;;11.98;;
20138;SDS011;10230;51.502;10.800;2022-08-25T07:11:09;24.67;;;12.27;;
20138;SDS011;10230;51.502;10.800;2022-08-25T07:13:35;17.70;;;11.35;;
20138;SDS011;10230;51.502;10.800;2022-08-25T07:16:02;18.40;;;11.40;;
20138;SDS011;10230;51.502;10.800;2022-08-25T07:18:29;18.20;;;10.93;;
20138;SDS011;10230;51.502;10.800;2022-08-25T07:20:55;16.13;;;11.25;;
20138;SDS011;10230;51.502;10.800;2022-08-25T07:23:21;14.13;;;11.68;;
20138;SDS011;10230;51.502;10.800;2022-08-25T07:25:48;13.77;;;11.20;;
20138;SDS011;10230;51.502;10.800;2022-08-25T07:28:14;12.05;;;9.32;;
20138;SDS011;10230;51.502;10.800;2022-08-25T07:30:40;15.10;;;9.63;;
20138;SDS011;10230;51.502;10.800;2022-08-25T07:33:06;13.80;;;9.55;;
20138;SDS011;10230;51.502;10.800;2022-08-25T07:35:32;11.90;;;9.43;;
20138;SDS011;10230;51.502;10.800;2022-08-25T07:38:01;11.20;;;9.88;;
20138;SDS011;10230;51.502;10.800;2022-08-25T07:40:28;10.85;;;8.75;;
20138;SDS011;10230;51.502;10.800;2022-08-25T07:42:55;14.48;;;9.45;;
20138;SDS011;10230;51.502;10.800;2022-08-25T07:45:22;11.18;;;8.77;;
20138;SDS011;10230;51.502;10.800;2022-08-25T07:47:54;10.90;;;8.18;;
20138;SDS011;10230;51.502;10.800;2022-08-25T07:50:20;9.35;;;8.40;;
20138;SDS011;10230;51.502;10.800;2022-08-25T07:52:46;15.60;;;8.90;;
20138;SDS011;10230;51.502;10.800;2022-08-25T07:55:12;13.30;;;8.90;;
20138;SDS011;10230;51.502;10.800;2022-08-25T07:57:39;13.43;;;9.00;;
20138;SDS011;10230;51.502;10.800;2022-08-25T08:00:06;12.80;;;8.90;;
20138;SDS011;10230;51.502;10.800;2022-08-25T08:02:32;10.75;;;8.30;;
20138;SDS011;10230;51.502;10.800;2022-08-25T08:04:58;11.55;;;9.32;;
20138;SDS011;10230;51.502;10.800;2022-08-25T08:07:24;9.30;;;8.02;;
20138;SDS011;10230;51.502;10.800;2022-08-25T08:09:51;12.13;;;9.00;;
20138;SDS011;10230;51.502;10.800;2022-08-25T08:12:17;13.02;;;8.57;;
20138;SDS011;10230;51.502;10.800;2022-08-25T08:14:43;10.77;;;7.70;;
20138;SDS011;10230;51.502;10.800;2022-08-25T08:17:09;11.50;;;7.85;;
20138;SDS011;10230;51.502;10.800;2022-08-25T08:19:36;9.70;;;8.10;;
20138;SDS011;10230;51.502;10.800;2022-08-25T08:22:04;10.48;;;7.63;;
20138;SDS011;10230;51.502;10.800;2022-08-25T08:24:31;11.90;;;8.43;;
20138;SDS011;10230;51.502;10.800;2022-08-25T08:27:03;12.95;;;8.07;;
20138;SDS011;10230;51.502;10.800;2022-08-25T08:29:29;11.27;;;7.57;;
20138;SDS011;10230;51.502;10.800;2022-08-25T08:31:56;12.40;;;7.63;;
20138;SDS011;10230;51.502;10.800;2022-08-25T08:34:23;10.75;;;8.65;;
20138;SDS011;10230;51.502;10.800;2022-08-25T08:36:49;15.63;;;8.95;;
20138;SDS011;10230;51.502;10.800;2022-08-25T08:39:15;16.08;;;9.80;;
20138;SDS011;10230;51.502;10.800;2022-08-25T08:41:47;9.27;;;8.48;;
20138;SDS011;10230;51.502;10.800;2022-08-25T08:47:52;9.93;;;8.30;;
20138;SDS011;10230;51.502;10.800;2022-08-25T08:55:14;9.10;;;6.72;;
20138;SDS011;10230;51.502;10.800;2022-08-25T08:57:43;11.40;;;7.10;;
20138;SDS011;10230;51.502;10.800;2022-08-25T09:00:11;14.32;;;6.70;;
20138;SDS011;10230;51.502;10.800;2022-08-25T09:02:39;11.80;;;5.80;;
20138;SDS011;10230;51.502;10.800;2022-08-25T09:05:13;9.15;;;6.82;;
20138;SDS011;10230;51.502;10.800;2022-08-25T09:07:53;10.23;;;6.13;;
20138;SDS011;10230;51.502;10.800;2022-08-25T09:10:19;8.27;;;5.85;;
20138;SDS011;10230;51.502;10.800;2022-08-25T09:30:05;12.18;;;7.28;;
20138;SDS011;10230;51.502;10.800;2022-08-25T09:32:37;11.45;;;6.82;;
20138;SDS011;10230;51.502;10.800;2022-08-25T09:35:04;10.00;;;5.55;;
20138;SDS011;10230;51.502;10.800;2022-08-25T09:37:32;11.95;;;6.20;;
20138;SDS011;10230;51.502;10.800;2022-08-25T09:39:58;15.40;;;6.85;;
20138;SDS011;10230;51.502;10.800;2022-08-25T09:42:44;11.00;;;6.65;;
20138;SDS011;10230;51.502;10.800;2022-08-25T09:45:12;11.85;;;6.07;;
20138;SDS011;10230;51.502;10.800;2022-08-25T09:47:42;11.77;;;6.10;;
20138;SDS011;10230;51.502;10.800;2022-08-25T09:50:14;10.65;;;5.97;;
20138;SDS011;10230;51.502;10.800;2022-08-25T09:52:41;8.43;;;5.72;;
20138;SDS011;10230;51.502;10.800;2022-08-25T10:00:10;8.87;;;5.93;;
20138;SDS011;10230;51.502;10.800;2022-08-25T10:02:37;11.50;;;6.57;;
20138;SDS011;10230;51.502;10.800;2022-08-25T10:05:17;12.10;;;7.15;;
20138;SDS011;10230;51.502;10.800;2022-08-25T10:07:49;13.80;;;7.68;;
20138;SDS011;10230;51.502;10.800;2022-08-25T10:10:23;11.98;;;7.10;;
20138;SDS011;10230;51.502;10.800;2022-08-25T10:12:55;11.48;;;6.80;;
20138;SDS011;10230;51.502;10.800;2022-08-25T10:17:50;9.77;;;6.72;;
20138;SDS011;10230;51.502;10.800;2022-08-25T10:20:21;15.10;;;6.93;;
20138;SDS011;10230;51.502;10.800;2022-08-25T10:22:49;13.53;;;6.40;;
20138;SDS011;10230;51.502;10.800;2022-08-25T10:25:23;11.82;;;6.50;;
20138;SDS011;10230;51.502;10.800;2022-08-25T10:30:23;11.32;;;7.43;;
20138;SDS011;10230;51.502;10.800;2022-08-25T10:33:34;11.45;;;7.13;;
20138;SDS011;10230;51.502;10.800;2022-08-25T10:36:08;14.70;;;7.30;;
20138;SDS011;10230;51.502;10.800;2022-08-25T10:38:44;11.02;;;7.03;;
20138;SDS011;10230;51.502;10.800;2022-08-25T10:44:18;13.48;;;7.15;;
20138;SDS011;10230;51.502;10.800;2022-08-25T11:06:16;10.57;;;6.25;;
20138;SDS011;10230;51.502;10.800;2022-08-25T11:09:07;15.75;;;6.80;;
20138;SDS011;10230;51.502;10.800;2022-08-25T11:14:50;8.23;;;5.97;;
20138;SDS011;10230;51.502;10.800;2022-08-25T11:19:34;9.75;;;5.75;;
20138;SDS011;10230;51.502;10.800;2022-08-25T11:27:27;12.70;;;5.93;;
20138;SDS011;10230;51.502;10.800;2022-08-25T11:30:04;9.73;;;5.43;;
20138;SDS011;10230;51.502;10.800;2022-08-25T11:32:35;12.25;;;5.55;;
20138;SDS011;10230;51.502;10.800;2022-08-25T11:35:06;14.50;;;5.82;;
20138;SDS011;10230;51.502;10.800;2022-08-25T11:37:36;8.35;;;5.47;;
20138;SDS011;10230;51.502;10.800;2022-08-25T11:40:32;12.07;;;5.40;;
20138;SDS011;10230;51.502;10.800;2022-08-25T11:51:45;9.25;;;4.95;;
20138;SDS011;10230;51.502;10.800;2022-08-25T12:10:19;13.77;;;5.43;;
20138;SDS011;10230;51.502;10.800;2022-08-25T12:15:20;14.33;;;6.03;;
20138;SDS011;10230;51.502;10.800;2022-08-25T12:18:06;14.07;;;6.30;;
20138;SDS011;10230;51.502;10.800;2022-08-25T12:23:39;16.80;;;6.70;;
20138;SDS011;10230;51.502;10.800;2022-08-25T12:31:15;12.27;;;5.90;;
20138;SDS011;10230;51.502;10.800;2022-08-25T12:33:50;14.50;;;6.43;;
20138;SDS011;10230;51.502;10.800;2022-08-25T12:36:25;18.30;;;6.60;;
20138;SDS011;10230;51.502;10.800;2022-08-25T12:38:52;15.10;;;6.07;;
20138;SDS011;10230;51.502;10.800;2022-08-25T12:41:19;16.15;;;6.25;;
20138;SDS011;10230;51.502;10.800;2022-08-25T12:43:49;11.73;;;5.97;;
20138;SDS011;10230;51.502;10.800;2022-08-25T12:59:41;12.50;;;6.20;;
20138;SDS011;10230;51.502;10.800;2022-08-25T13:07:22;16.98;;;6.35;;
20138;SDS011;10230;51.502;10.800;2022-08-25T13:12:54;13.77;;;5.50;;
20138;SDS011;10230;51.502;10.800;2022-08-25T14:20:16;11.15;;;6.38;;
20138;SDS011;10230;51.502;10.800;2022-08-25T14:22:44;12.00;;;5.68;;
20138;SDS011;10230;51.502;10.800;2022-08-25T14:25:10;13.60;;;5.85;;
20138;SDS011;10230;51.502;10.800;2022-08-25T14:27:39;12.38;;;5.28;;
20138;SDS011;10230;51.502;10.800;2022-08-25T14:30:06;13.65;;;5.72;;
20138;SDS011;10230;51.502;10.800;2022-08-25T14:32:32;14.13;;;5.43;;
20138;SDS011;10230;51.502;10.800;2022-08-25T14:34:58;31.67;;;6.63;;
20138;SDS011;10230;51.502;10.800;2022-08-25T14:37:23;11.73;;;5.20;;
20138;SDS011;10230;51.502;10.800;2022-08-25T14:39:49;11.13;;;5.50;;
20138;SDS011;10230;51.502;10.800;2022-08-25T14:42:16;8.18;;;4.80;;
20138;SDS011;10230;51.502;10.800;2022-08-25T14:44:42;9.63;;;5.28;;
20138;SDS011;10230;51.502;10.800;2022-08-25T14:47:07;7.38;;;4.90;;
20138;SDS011;10230;51.502;10.800;2022-08-25T14:49:35;9.95;;;5.25;;
20138;SDS011;10230;51.502;10.800;2022-08-25T14:54:59;11.48;;;5.70;;
20138;SDS011;10230;51.502;10.800;2022-08-25T14:57:25;10.02;;;5.35;;
20138;SDS011;10230;51.502;10.800;2022-08-25T14:59:51;13.18;;;5.53;;
20138;SDS011;10230;51.502;10.800;2022-08-25T15:02:17;11.82;;;5.55;;
20138;SDS011;10230;51.502;10.800;2022-08-25T15:04:50;12.40;;;5.45;;
20138;SDS011;10230;51.502;10.800;2022-08-25T15:07:18;13.13;;;5.72;;
20138;SDS011;10230;51.502;10.800;2022-08-25T15:10:03;12.02;;;5.68;;
20138;SDS011;10230;51.502;10.800;2022-08-25T15:12:28;10.63;;;5.20;;
20138;SDS011;10230;51.502;10.800;2022-08-25T15:14:55;9.35;;;5.70;;
20138;SDS011;10230;51.502;10.800;2022-08-25T15:17:22;10.88;;;4.65;;
20138;SDS011;10230;51.502;10.800;2022-08-25T15:19:47;9.07;;;4.85;;
20138;SDS011;10230;51.502;10.800;2022-08-25T15:22:13;8.77;;;4.70;;
20138;SDS011;10230;51.502;10.800;2022-08-25T15:24:39;14.18;;;5.15;;
20138;SDS011;10230;51.502;10.800;2022-08-25T15:27:06;10.50;;;5.28;;
20138;SDS011;10230;51.502;10.800;2022-08-25T15:29:33;10.52;;;7.13;;
20138;SDS011;10230;51.502;10.800;2022-08-25T15:32:00;16.63;;;6.18;;
20138;SDS011;10230;51.502;10.800;2022-08-25T15:34:26;8.88;;;5.38;;
20138;SDS011;10230;51.502;10.800;2022-08-25T15:36:53;13.02;;;5.55;;
20138;SDS011;10230;51.502;10.800;2022-08-25T15:39:19;13.48;;;5.97;;
20138;SDS011;10230;51.502;10.800;2022-08-25T15:41:45;9.68;;;5.40;;
20138;SDS011;10230;51.502;10.800;2022-08-25T15:44:16;14.63;;;5.43;;
20138;SDS011;10230;51.502;10.800;2022-08-25T15:46:42;12.27;;;5.00;;
20138;SDS011;10230;51.502;10.800;2022-08-25T15:49:08;15.32;;;6.07;;
20138;SDS011;10230;51.502;10.800;2022-08-25T15:51:34;12.90;;;5.30;;
20138;SDS011;10230;51.502;10.800;2022-08-25T15:54:00;10.90;;;5.50;;
20138;SDS011;10230;51.502;10.800;2022-08-25T15:56:26;15.48;;;5.90;;
20138;SDS011;10230;51.502;10.800;2022-08-25T15:58:52;13.35;;;5.70;;
20138;SDS011;10230;51.502;10.800;2022-08-25T16:01:22;10.57;;;5.70;;
20138;SDS011;10230;51.502;10.800;2022-08-25T16:03:49;11.15;;;5.35;;
20138;SDS011;10230;51.502;10.800;2022-08-25T16:06:15;10.98;;;5.72;;
20138;SDS011;10230;51.502;10.800;2022-08-25T16:08:41;14.90;;;5.82;;
20138;SDS011;10230;51.502;10.800;2022-08-25T16:11:19;12.57;;;6.43;;
20138;SDS011;10230;51.502;10.800;2022-08-25T16:13:46;12.75;;;5.15;;
20138;SDS011;10230;51.502;10.800;2022-08-25T16:16:13;14.05;;;5.80;;
20138;SDS011;10230;51.502;10.800;2022-08-25T16:18:40;15.13;;;6.68;;
20138;SDS011;10230;51.502;10.800;2022-08-25T16:21:12;21.05;;;6.65;;
20138;SDS011;10230;51.502;10.800;2022-08-25T16:23:38;14.10;;;6.10;;
20138;SDS011;10230;51.502;10.800;2022-08-25T16:26:05;15.98;;;5.93;;
20138;SDS011;10230;51.502;10.800;2022-08-25T16:28:33;12.40;;;6.55;;
20138;SDS011;10230;51.502;10.800;2022-08-25T16:31:09;18.67;;;6.75;;
20138;SDS011;10230;51.502;10.800;2022-08-25T16:33:36;15.65;;;6.07;;
20138;SDS011;10230;51.502;10.800;2022-08-25T16:36:06;14.07;;;6.47;;
20138;SDS011;10230;51.502;10.800;2022-08-25T16:38:34;17.63;;;6.40;;
20138;SDS011;10230;51.502;10.800;2022-08-25T16:41:10;14.25;;;6.35;;
20138;SDS011;10230;51.502;10.800;2022-08-25T16:43:38;15.32;;;5.95;;
20138;SDS011;10230;51.502;10.800;2022-08-25T16:46:05;14.82;;;5.75;;
20138;SDS011;10230;51.502;10.800;2022-08-25T16:48:33;14.63;;;6.65;;
20138;SDS011;10230;51.502;10.800;2022-08-25T16:50:59;12.38;;;6.97;;
20138;SDS011;10230;51.502;10.800;2022-08-25T16:53:25;13.85;;;6.53;;
20138;SDS011;10230;51.502;10.800;2022-08-25T16:56:09;20.55;;;6.88;;
20138;SDS011;10230;51.502;10.800;2022-08-25T16:58:35;17.42;;;7.38;;
20138;SDS011;10230;51.502;10.800;2022-08-25T17:01:03;15.70;;;6.15;;
20138;SDS011;10230;51.502;10.800;2022-08-25T17:03:35;17.52;;;6.57;;
20138;SDS011;10230;51.502;10.800;2022-08-25T17:06:01;14.40;;;6.30;;
20138;SDS011;10230;51.502;10.800;2022-08-25T17:08:27;15.20;;;6.80;;
20138;SDS011;10230;51.502;10.800;2022-08-25T17:10:53;16.42;;;6.43;;
20138;SDS011;10230;51.502;10.800;2022-08-25T17:13:28;17.70;;;6.72;;
20138;SDS011;10230;51.502;10.800;2022-08-25T17:15:54;14.77;;;6.22;;
20138;SDS011;10230;51.502;10.800;2022-08-25T17:18:19;14.95;;;5.90;;
20138;SDS011;10230;51.502;10.800;2022-08-25T17:20:45;18.38;;;6.80;;
20138;SDS011;10230;51.502;10.800;2022-08-25T17:23:12;17.08;;;6.15;;
20138;SDS011;10230;51.502;10.800;2022-08-25T17:25:40;14.70;;;6.45;;
20138;SDS011;10230;51.502;10.800;2022-08-25T17:28:06;14.48;;;5.50;;
20138;SDS011;10230;51.502;10.800;2022-08-25T17:30:32;15.30;;;6.68;;
20138;SDS011;10230;51.502;10.800;2022-08-25T17:32:58;17.13;;;6.93;;
20138;SDS011;10230;51.502;10.800;2022-08-25T17:35:24;16.63;;;6.53;;
20138;SDS011;10230;51.502;10.800;2022-08-25T17:37:51;22.45;;;6.68;;
20138;SDS011;10230;51.502;10.800;2022-08-25T17:40:16;12.80;;;5.85;;
20138;SDS011;10230;51.502;10.800;2022-08-25T17:42:42;12.88;;;6.68;;
20138;SDS011;10230;51.502;10.800;2022-08-25T17:45:08;20.50;;;8.00;;
20138;SDS011;10230;51.502;10.800;2022-08-25T17:47:34;17.88;;;7.43;;
20138;SDS011;10230;51.502;10.800;2022-08-25T17:50:00;18.92;;;6.68;;
20138;SDS011;10230;51.502;10.800;2022-08-25T17:52:26;18.15;;;6.45;;
20138;SDS011;10230;51.502;10.800;2022-08-25T17:54:52;17.35;;;6.90;;